Time;durP1;ratioP1;P1;durP2;ratioP2;P2;SDS_P1;SDS_P2;PMS_P1;PMS_P2;Temp;Humidity;BMP_temperature;BMP_pressure;BME280_temperature;BME280_humidity;BME280_pressure;Samples;Min_cycle;Max_cycle;Signal;HPM_P1;HPM_P2
2024/03/13 00:01:25;;;;;;;;;;;8.40;87.10;;;;;;6274675;22;20324;-78
2024/03/13 00:03:54;;;;;;;;;;;8.40;87.30;;;;;;6275324;22;19923;-79
2024/03/13 00:06:21;;;;;;;;;;;8.40;88.40;;;;;;6273654;22;19923;-78
2024/03/13 00:08:48;;;;;;;;;;;8.30;89.50;;;;;;6275135;22;19930;-79
2024/03/13 00:11:15;;;;;;;;;;;8.30;90.40;;;;;;6273820;22;20379;-78
2024/03/13 00:13:44;;;;;;;;;;;8.20;90.70;;;;;;6274153;22;19931;-78
2024/03/13 00:16:12;;;;;;;;;;;8.20;90.90;;;;;;6273927;22;19990;-79
2024/03/13 00:18:39;;;;;;;;;;;8.10;91.20;;;;;;6273883;22;19930;-78
2024/03/13 00:21:07;;;;;;;;;;;8.10;91.40;;;;;;6272886;22;19981;-78
2024/03/13 00:23:34;;;;;;;;;;;8.10;91.50;;;;;;6274981;22;19989;-78
2024/03/13 00:26:01;;;;;;;;;;;8.00;91.40;;;;;;6273396;22;19919;-78
2024/03/13 00:28:28;;;;;;;;;;;8.00;91.40;;;;;;6274840;22;19919;-79
2024/03/13 00:30:55;;;;;;;;;;;8.00;91.30;;;;;;6274256;22;19959;-79
2024/03/13 00:33:22;;;;;;;;;;;8.00;91.60;;;;;;6273572;22;20232;-78
2024/03/13 00:35:54;;;;;;;;;;;8.00;91.30;;;;;;6273428;22;19930;-79
2024/03/13 00:38:25;;;;;;;;;;;8.00;91.30;;;;;;6274421;22;19994;-79
2024/03/13 00:40:53;;;;;;;;;;;8.00;91.30;;;;;;6273484;22;20257;-79
2024/03/13 00:43:23;;;;;;;;;;;8.00;91.50;;;;;;6275031;22;19980;-79
2024/03/13 00:45:50;;;;;;;;;;;8.00;91.60;;;;;;6274408;22;19930;-79
2024/03/13 00:48:20;;;;;;;;;;;8.00;91.60;;;;;;6274149;22;19942;-78
2024/03/13 00:50:48;;;;;;;;;;;8.00;91.60;;;;;;6275131;22;20364;-78
2024/03/13 00:53:15;;;;;;;;;;;8.00;91.50;;;;;;6274149;22;20022;-79
2024/03/13 00:55:41;;;;;;;;;;;8.00;91.50;;;;;;6275531;22;19927;-78
2024/03/13 00:58:08;;;;;;;;;;;8.00;91.40;;;;;;6273859;22;20419;-79
2024/03/13 01:00:36;;;;;;;;;;;8.00;91.40;;;;;;6273718;22;20283;-78
2024/03/13 01:03:04;;;;;;;;;;;8.00;91.30;;;;;;6274883;22;19988;-79
2024/03/13 01:05:31;;;;;;;;;;;8.00;91.10;;;;;;6273650;22;19923;-78
2024/03/13 01:07:58;;;;;;;;;;;8.00;91.00;;;;;;6273595;22;19919;-79
2024/03/13 01:10:26;;;;;;;;;;;8.10;90.60;;;;;;6273458;22;20402;-79
2024/03/13 01:12:54;;;;;;;;;;;8.00;90.50;;;;;;6273554;22;19919;-79
2024/03/13 01:15:21;;;;;;;;;;;8.00;90.50;;;;;;6274782;22;19927;-79
2024/03/13 01:17:48;;;;;;;;;;;8.00;90.40;;;;;;6274811;22;19928;-79
2024/03/13 01:20:17;;;;;;;;;;;8.00;90.40;;;;;;6273700;22;19943;-80
2024/03/13 01:22:47;;;;;;;;;;;8.00;90.40;;;;;;6273580;22;19920;-78
2024/03/13 01:25:15;;;;;;;;;;;8.00;90.30;;;;;;6274690;22;20305;-79
2024/03/13 01:27:42;;;;;;;;;;;8.00;90.30;;;;;;6273579;22;19923;-79
2024/03/13 01:30:10;;;;;;;;;;;8.00;90.20;;;;;;6273518;22;19954;-78
2024/03/13 01:32:37;;;;;;;;;;;8.00;90.30;;;;;;6274834;22;19919;-78
2024/03/13 01:35:06;;;;;;;;;;;8.00;90.00;;;;;;6275339;22;20002;-79
2024/03/13 01:40:23;;;;;;;;;;;8.00;90.00;;;;;;6276478;22;19946;-78
2024/03/13 01:56:57;;;;;;;;;;;7.60;90.90;;;;;;6276417;22;19923;-78
2024/03/13 01:59:35;;;;;;;;;;;7.50;91.10;;;;;;6276602;22;20228;-79
2024/03/13 02:04:50;;;;;;;;;;;7.40;91.30;;;;;;6276284;22;20224;-79
2024/03/13 02:07:18;;;;;;;;;;;7.40;91.40;;;;;;6276362;22;19923;-78
2024/03/13 02:09:45;;;;;;;;;;;7.40;91.00;;;;;;6275912;22;19994;-79
2024/03/13 02:12:12;;;;;;;;;;;7.30;90.90;;;;;;6275893;22;19920;-79
2024/03/13 02:14:39;;;;;;;;;;;7.40;90.80;;;;;;6275401;22;19919;-78
2024/03/13 02:17:08;;;;;;;;;;;7.40;91.00;;;;;;6276136;22;19923;-79
2024/03/13 02:19:36;;;;;;;;;;;7.30;90.70;;;;;;6275142;22;19946;-78
2024/03/13 02:22:04;;;;;;;;;;;7.30;90.60;;;;;;6275990;22;19923;-79
2024/03/13 02:24:33;;;;;;;;;;;7.30;90.70;;;;;;6275713;22;19973;-79
2024/03/13 02:27:00;;;;;;;;;;;7.30;90.60;;;;;;6274957;22;19951;-79
2024/03/13 02:29:28;;;;;;;;;;;7.20;90.50;;;;;;6276289;22;19985;-78
2024/03/13 02:31:55;;;;;;;;;;;7.10;90.30;;;;;;6276464;22;20026;-78
2024/03/13 02:34:21;;;;;;;;;;;7.00;90.50;;;;;;6276852;22;19989;-78
2024/03/13 02:36:49;;;;;;;;;;;7.00;90.70;;;;;;6275191;22;19927;-78
2024/03/13 02:39:19;;;;;;;;;;;6.90;90.80;;;;;;6275595;22;19927;-78
2024/03/13 02:41:46;;;;;;;;;;;6.80;90.90;;;;;;6275025;22;19919;-79
2024/03/13 02:44:13;;;;;;;;;;;6.70;91.30;;;;;;6274213;22;19919;-79
2024/03/13 02:46:40;;;;;;;;;;;6.60;91.80;;;;;;6274330;22;19919;-79
2024/03/13 02:49:06;;;;;;;;;;;6.60;92.30;;;;;;6274887;22;19988;-78
2024/03/13 02:51:34;;;;;;;;;;;6.50;92.20;;;;;;6274586;22;20001;-78
2024/03/13 02:54:01;;;;;;;;;;;6.50;92.50;;;;;;6274763;22;19927;-78
2024/03/13 02:56:28;;;;;;;;;;;6.60;93.00;;;;;;6274479;22;19982;-79
2024/03/13 02:58:55;;;;;;;;;;;6.60;93.20;;;;;;6274767;22;19923;-79
2024/03/13 03:01:22;;;;;;;;;;;6.60;93.10;;;;;;6274259;22;19919;-79
2024/03/13 03:03:49;;;;;;;;;;;6.60;93.00;;;;;;6274595;22;20274;-77
2024/03/13 03:06:16;;;;;;;;;;;6.60;93.30;;;;;;6275174;22;20468;-78
2024/03/13 03:08:46;;;;;;;;;;;6.60;93.20;;;;;;6274926;22;19931;-79
2024/03/13 03:11:13;;;;;;;;;;;6.60;93.20;;;;;;6275592;22;19919;-78
2024/03/13 03:13:42;;;;;;;;;;;6.60;93.00;;;;;;6274862;22;19919;-79
2024/03/13 03:16:11;;;;;;;;;;;6.60;93.20;;;;;;6274679;22;19977;-79
2024/03/13 03:18:38;;;;;;;;;;;6.50;93.40;;;;;;6274335;22;19997;-78
2024/03/13 03:21:08;;;;;;;;;;;6.40;93.50;;;;;;6274441;22;19977;-78
2024/03/13 03:23:35;;;;;;;;;;;6.30;93.80;;;;;;6274530;22;20248;-79
2024/03/13 03:26:01;;;;;;;;;;;6.20;93.80;;;;;;6275233;22;19980;-79
2024/03/13 03:28:31;;;;;;;;;;;6.20;94.20;;;;;;6274125;22;20282;-78
2024/03/13 03:31:04;;;;;;;;;;;6.10;94.80;;;;;;6274863;22;19942;-79
2024/03/13 03:33:31;;;;;;;;;;;6.00;94.80;;;;;;6274683;22;19957;-77
2024/03/13 03:35:58;;;;;;;;;;;5.90;95.10;;;;;;6275898;22;20002;-79
2024/03/13 03:38:28;;;;;;;;;;;5.80;95.50;;;;;;6274738;22;19923;-78
2024/03/13 03:40:55;;;;;;;;;;;5.80;95.80;;;;;;6274353;22;20292;-77
2024/03/13 03:43:22;;;;;;;;;;;5.70;95.70;;;;;;6274101;22;19930;-77
2024/03/13 03:45:49;;;;;;;;;;;5.70;96.30;;;;;;6275309;22;19923;-79
2024/03/13 03:48:16;;;;;;;;;;;5.60;96.30;;;;;;6275364;22;19933;-78
2024/03/13 03:50:43;;;;;;;;;;;5.50;96.50;;;;;;6274020;22;20323;-77
2024/03/13 03:53:10;;;;;;;;;;;5.50;96.50;;;;;;6273824;22;19919;-79
2024/03/13 03:55:40;;;;;;;;;;;5.40;96.50;;;;;;6273940;22;20236;-77
2024/03/13 03:58:07;;;;;;;;;;;5.40;96.70;;;;;;6273975;22;20295;-78
2024/03/13 04:00:35;;;;;;;;;;;5.30;96.60;;;;;;6273871;22;19930;-79
2024/03/13 04:03:02;;;;;;;;;;;5.20;97.10;;;;;;6274422;22;19927;-79
2024/03/13 04:05:29;;;;;;;;;;;5.20;97.30;;;;;;6273868;22;19934;-79
2024/03/13 04:07:58;;;;;;;;;;;5.10;97.40;;;;;;6274962;22;19923;-78
2024/03/13 04:10:25;;;;;;;;;;;5.10;97.70;;;;;;6273938;22;19934;-78
2024/03/13 04:12:51;;;;;;;;;;;5.00;98.10;;;;;;6274814;22;20301;-79
2024/03/13 04:15:23;;;;;;;;;;;5.00;98.30;;;;;;6274095;22;19919;-78
2024/03/13 04:17:52;;;;;;;;;;;4.90;98.30;;;;;;6273849;22;19919;-79
2024/03/13 04:20:20;;;;;;;;;;;4.90;98.40;;;;;;6274698;22;20009;-79
2024/03/13 04:22:49;;;;;;;;;;;4.80;98.60;;;;;;6273830;22;19923;-78
2024/03/13 04:25:17;;;;;;;;;;;4.80;98.70;;;;;;6274941;22;20304;-79
2024/03/13 04:27:45;;;;;;;;;;;4.80;98.80;;;;;;6274805;22;20012;-78
2024/03/13 04:30:14;;;;;;;;;;;4.70;98.80;;;;;;6274194;22;19923;-78
2024/03/13 04:32:41;;;;;;;;;;;4.70;99.00;;;;;;6274095;22;20262;-77
2024/03/13 04:35:08;;;;;;;;;;;4.60;99.20;;;;;;6274940;22;20420;-79
2024/03/13 04:37:39;;;;;;;;;;;4.70;99.40;;;;;;6275285;22;20395;-77
2024/03/13 04:40:08;;;;;;;;;;;4.70;99.40;;;;;;6275057;22;19919;-78
2024/03/13 04:42:37;;;;;;;;;;;4.70;99.40;;;;;;6273850;22;19919;-78
2024/03/13 04:45:05;;;;;;;;;;;4.70;99.20;;;;;;6273706;22;19919;-78
2024/03/13 04:47:32;;;;;;;;;;;4.60;99.30;;;;;;6273457;22;19919;-78
2024/03/13 04:50:00;;;;;;;;;;;4.60;99.50;;;;;;6275069;22;19923;-79
2024/03/13 04:52:27;;;;;;;;;;;4.60;99.60;;;;;;6273719;22;20370;-79
2024/03/13 04:54:54;;;;;;;;;;;4.70;99.80;;;;;;6274641;22;20316;-79
2024/03/13 04:57:21;;;;;;;;;;;4.70;99.80;;;;;;6275175;22;19919;-78
2024/03/13 04:59:49;;;;;;;;;;;4.80;99.90;;;;;;6273987;22;19926;-77
2024/03/13 05:02:16;;;;;;;;;;;4.70;99.80;;;;;;6274725;22;19919;-78
2024/03/13 05:04:42;;;;;;;;;;;4.80;99.80;;;;;;6275318;22;19981;-78
2024/03/13 05:07:12;;;;;;;;;;;4.80;99.90;;;;;;6276533;22;19980;-77
2024/03/13 05:09:44;;;;;;;;;;;4.80;99.90;;;;;;6277534;22;19919;-77
2024/03/13 05:12:13;;;;;;;;;;;4.90;99.90;;;;;;6276225;22;19997;-78
2024/03/13 05:14:40;;;;;;;;;;;4.90;99.90;;;;;;6277820;22;19923;-78
2024/03/13 05:17:09;;;;;;;;;;;4.90;99.80;;;;;;6275520;22;20072;-77
2024/03/13 05:19:38;;;;;;;;;;;4.90;99.70;;;;;;6276727;22;19927;-78
2024/03/13 05:22:05;;;;;;;;;;;4.90;99.70;;;;;;6277522;22;19930;-78
2024/03/13 05:24:32;;;;;;;;;;;4.90;99.70;;;;;;6276645;22;20300;-78
2024/03/13 05:26:59;;;;;;;;;;;5.00;99.60;;;;;;6275845;22;19919;-79
2024/03/13 05:29:27;;;;;;;;;;;5.00;99.70;;;;;;6276543;22;19923;-78
2024/03/13 05:31:54;;;;;;;;;;;5.00;99.30;;;;;;6276109;22;19919;-78
2024/03/13 05:34:21;;;;;;;;;;;5.00;99.30;;;;;;6276241;22;19930;-78
2024/03/13 05:36:48;;;;;;;;;;;5.10;99.30;;;;;;6277483;22;19923;-78
2024/03/13 05:39:15;;;;;;;;;;;5.10;99.30;;;;;;6277175;22;19919;-78
2024/03/13 05:41:45;;;;;;;;;;;5.20;99.20;;;;;;6275888;22;20221;-77
2024/03/13 05:44:12;;;;;;;;;;;5.20;98.90;;;;;;6276208;22;19920;-77
2024/03/13 05:46:39;;;;;;;;;;;5.30;98.80;;;;;;6275630;22;20298;-76
2024/03/13 05:49:06;;;;;;;;;;;5.40;98.70;;;;;;6276001;22;19926;-76
2024/03/13 05:51:34;;;;;;;;;;;5.50;98.40;;;;;;6276586;22;19997;-77
2024/03/13 05:54:02;;;;;;;;;;;5.60;98.10;;;;;;6277171;22;19939;-77
2024/03/13 05:56:29;;;;;;;;;;;5.60;97.70;;;;;;6276154;22;19919;-76
2024/03/13 05:58:55;;;;;;;;;;;5.70;97.60;;;;;;6276199;22;20323;-76
2024/03/13 06:01:26;;;;;;;;;;;5.70;97.20;;;;;;6277005;22;19977;-77
2024/03/13 06:03:56;;;;;;;;;;;5.80;97.00;;;;;;6277079;22;19942;-77
2024/03/13 06:06:23;;;;;;;;;;;5.90;96.90;;;;;;6277354;22;19919;-77
2024/03/13 06:08:50;;;;;;;;;;;5.90;96.80;;;;;;6275812;22;19923;-77
2024/03/13 06:11:18;;;;;;;;;;;6.00;96.70;;;;;;6277282;22;19919;-77
2024/03/13 06:13:46;;;;;;;;;;;6.00;96.60;;;;;;6275659;22;19923;-77
2024/03/13 06:16:15;;;;;;;;;;;6.10;96.60;;;;;;6275395;22;19938;-77
2024/03/13 06:18:42;;;;;;;;;;;6.20;96.50;;;;;;6277115;22;20336;-77
2024/03/13 06:21:09;;;;;;;;;;;6.30;96.60;;;;;;6275183;22;19919;-77
2024/03/13 06:23:47;;;;;;;;;;;6.40;96.20;;;;;;6275062;22;19930;-77
2024/03/13 06:26:21;;;;;;;;;;;6.50;96.20;;;;;;6276654;22;19976;-77
2024/03/13 06:31:42;;;;;;;;;;;6.70;95.70;;;;;;6276725;22;20221;-78
2024/03/13 06:34:09;;;;;;;;;;;6.80;95.50;;;;;;6273368;22;19923;-77
2024/03/13 06:36:37;;;;;;;;;;;6.90;95.30;;;;;;6276469;22;19938;-78
2024/03/13 06:39:06;;;;;;;;;;;7.00;95.30;;;;;;6275541;22;19924;-77
2024/03/13 06:41:33;;;;;;;;;;;7.00;95.40;;;;;;6275546;22;19929;-78
2024/03/13 06:44:02;;;;;;;;;;;7.10;95.40;;;;;;6276846;22;19961;-78
2024/03/13 06:46:29;;;;;;;;;;;7.10;95.40;;;;;;6275848;22;20220;-78
2024/03/13 06:48:56;;;;;;;;;;;7.20;95.30;;;;;;6276278;22;19920;-78
2024/03/13 06:51:23;;;;;;;;;;;7.20;95.40;;;;;;6276914;22;19919;-78
2024/03/13 06:53:50;;;;;;;;;;;7.30;95.20;;;;;;6275588;22;19926;-78
2024/03/13 06:56:17;;;;;;;;;;;7.40;95.00;;;;;;6276252;22;19919;-78
2024/03/13 06:58:45;;;;;;;;;;;7.60;94.70;;;;;;6275358;22;19920;-78
2024/03/13 07:01:16;;;;;;;;;;;7.60;94.50;;;;;;6273738;22;19923;-78
2024/03/13 07:03:43;;;;;;;;;;;7.70;94.60;;;;;;6274242;22;20291;-77
2024/03/13 07:06:10;;;;;;;;;;;7.70;94.60;;;;;;6275271;22;19919;-78
2024/03/13 07:08:38;;;;;;;;;;;7.80;94.60;;;;;;6274844;22;19934;-78
2024/03/13 07:11:08;;;;;;;;;;;7.80;94.50;;;;;;6273313;22;19927;-78
2024/03/13 07:13:35;;;;;;;;;;;7.90;94.30;;;;;;6272760;22;19919;-79
2024/03/13 07:16:02;;;;;;;;;;;8.00;94.20;;;;;;6273576;22;19923;-77
2024/03/13 07:18:32;;;;;;;;;;;8.00;93.90;;;;;;6274108;22;19920;-78
2024/03/13 07:20:59;;;;;;;;;;;8.10;93.80;;;;;;6275262;22;19919;-78
2024/03/13 07:23:26;;;;;;;;;;;8.10;93.90;;;;;;6275356;22;19931;-78
2024/03/13 07:25:55;;;;;;;;;;;8.10;93.30;;;;;;6276322;22;19930;-78
2024/03/13 07:28:21;;;;;;;;;;;8.20;93.50;;;;;;6275785;22;20599;-79
2024/03/13 07:30:49;;;;;;;;;;;8.20;93.00;;;;;;6273977;22;19969;-79
2024/03/13 07:33:16;;;;;;;;;;;8.30;92.60;;;;;;6274782;22;20033;-78
2024/03/13 07:35:44;;;;;;;;;;;8.40;92.60;;;;;;6274963;22;19923;-78
2024/03/13 07:38:11;;;;;;;;;;;8.40;92.30;;;;;;6274423;22;20109;-78
2024/03/13 07:40:37;;;;;;;;;;;8.40;92.00;;;;;;6274247;22;19923;-78
2024/03/13 07:43:11;;;;;;;;;;;8.50;91.90;;;;;;6274323;22;19923;-78
2024/03/13 07:45:41;;;;;;;;;;;8.60;91.60;;;;;;6274126;22;20010;-78
2024/03/13 07:48:08;;;;;;;;;;;8.70;91.50;;;;;;6275043;22;19919;-78
2024/03/13 07:50:36;;;;;;;;;;;8.80;91.10;;;;;;6274918;22;20351;-78
2024/03/13 07:53:04;;;;;;;;;;;8.80;91.00;;;;;;6273719;22;20251;-79
2024/03/13 07:55:34;;;;;;;;;;;8.90;91.00;;;;;;6274141;22;20301;-78
2024/03/13 07:58:03;;;;;;;;;;;8.90;90.60;;;;;;6274993;22;19919;-78
2024/03/13 08:00:30;;;;;;;;;;;9.00;90.70;;;;;;6274175;22;19997;-79
2024/03/13 08:02:58;;;;;;;;;;;9.00;90.50;;;;;;6274752;22;20271;-78
2024/03/13 08:05:25;;;;;;;;;;;9.10;90.30;;;;;;6273859;22;19919;-78
2024/03/13 08:07:54;;;;;;;;;;;9.20;90.40;;;;;;6274836;22;19927;-79
2024/03/13 08:10:38;;;;;;;;;;;9.40;90.00;;;;;;6274378;22;19917;-78
2024/03/13 08:13:22;;;;;;;;;;;9.70;89.10;;;;;;6274745;22;19933;-78
2024/03/13 08:16:07;;;;;;;;;;;9.90;86.20;;;;;;6274212;22;19926;-78
2024/03/13 08:18:51;;;;;;;;;;;10.20;83.70;;;;;;6274022;22;19918;-78
2024/03/13 08:21:36;;;;;;;;;;;10.50;83.40;;;;;;6274578;22;19918;-78
2024/03/13 08:24:22;;;;;;;;;;;10.80;81.40;;;;;;6274759;22;19984;-78
2024/03/13 08:27:07;;;;;;;;;;;11.00;79.70;;;;;;6273546;22;20268;-78
2024/03/13 08:29:51;;;;;;;;;;;11.10;77.90;;;;;;6275139;22;19958;-78
2024/03/13 08:32:35;;;;;;;;;;;11.20;78.00;;;;;;6275201;22;20345;-78
2024/03/13 08:35:23;;;;;;;;;;;11.40;78.10;;;;;;6274455;22;19977;-79
2024/03/13 08:38:08;;;;;;;;;;;11.70;77.30;;;;;;6274331;22;20270;-79
2024/03/13 08:40:53;;;;;;;;;;;12.10;77.20;;;;;;6274788;22;20550;-78
2024/03/13 08:43:39;;;;;;;;;;;12.40;73.50;;;;;;6277531;22;20274;-78
2024/03/13 08:46:23;;;;;;;;;;;12.60;73.00;;;;;;6276221;22;20343;-78
2024/03/13 08:49:08;;;;;;;;;;;12.70;70.20;;;;;;6276624;22;19926;-78
2024/03/13 08:51:53;;;;;;;;;;;12.80;68.60;;;;;;6276224;22;20000;-78
2024/03/13 08:54:37;;;;;;;;;;;12.80;69.20;;;;;;6276230;22;20311;-78
2024/03/13 08:57:22;;;;;;;;;;;12.80;69.30;;;;;;6275542;22;19914;-78
2024/03/13 09:00:10;;;;;;;;;;;12.80;69.20;;;;;;6276220;22;20331;-78
2024/03/13 09:02:59;;;;;;;;;;;12.80;68.50;;;;;;6277092;22;19926;-78
2024/03/13 09:05:44;;;;;;;;;;;12.60;69.20;;;;;;6276096;22;19949;-78
2024/03/13 09:08:24;;;;;;;;;;;12.60;67.60;;;;;;6277158;22;19926;-78
2024/03/13 09:11:12;;;;;;;;;;;12.50;67.20;;;;;;6275697;22;19920;-79
2024/03/13 09:13:40;;;;;;;;;;;12.50;67.90;;;;;;6276495;22;19919;-79
2024/03/13 09:16:07;;;;;;;;;;;12.50;68.50;;;;;;6276692;22;20297;-79
2024/03/13 09:18:35;;;;;;;;;;;12.60;68.30;;;;;;6275707;22;19919;-79
2024/03/13 09:21:02;;;;;;;;;;;12.60;69.20;;;;;;6275481;22;19973;-79
2024/03/13 09:23:34;;;;;;;;;;;12.80;68.30;;;;;;6275759;22;19992;-78
2024/03/13 09:26:03;;;;;;;;;;;12.90;67.60;;;;;;6275603;22;19942;-78
2024/03/13 09:28:31;;;;;;;;;;;13.10;66.10;;;;;;6275339;22;19919;-78
2024/03/13 09:31:00;;;;;;;;;;;13.40;65.50;;;;;;6275727;22;19919;-78
2024/03/13 09:33:27;;;;;;;;;;;13.70;63.90;;;;;;6275261;22;19920;-79
2024/03/13 09:35:54;;;;;;;;;;;14.00;63.70;;;;;;6276589;22;19950;-78
2024/03/13 09:38:22;;;;;;;;;;;14.20;63.10;;;;;;6274969;22;19919;-79
2024/03/13 09:40:49;;;;;;;;;;;14.50;63.40;;;;;;6275377;22;20340;-79
2024/03/13 09:43:16;;;;;;;;;;;14.50;62.80;;;;;;6276429;22;19923;-79
2024/03/13 09:45:50;;;;;;;;;;;14.60;62.70;;;;;;6276953;22;19920;-79
2024/03/13 09:48:18;;;;;;;;;;;14.50;60.40;;;;;;6276167;22;19934;-79
2024/03/13 09:50:45;;;;;;;;;;;14.60;61.60;;;;;;6275356;22;19945;-78
2024/03/13 09:53:21;;;;;;;;;;;14.90;62.70;;;;;;6274743;22;19920;-78
2024/03/13 09:55:49;;;;;;;;;;;15.40;61.20;;;;;;6276712;22;19923;-78
2024/03/13 09:58:16;;;;;;;;;;;16.10;59.20;;;;;;6275623;22;20216;-79
2024/03/13 10:00:43;;;;;;;;;;;16.30;57.50;;;;;;6274967;22;19927;-78
2024/03/13 10:03:17;;;;;;;;;;;16.30;56.90;;;;;;6275076;22;19969;-79
2024/03/13 10:05:45;;;;;;;;;;;16.30;55.80;;;;;;6274990;22;19950;-79
2024/03/13 10:08:13;;;;;;;;;;;16.30;56.90;;;;;;6274907;22;19946;-79
2024/03/13 10:10:43;;;;;;;;;;;16.40;56.90;;;;;;6275016;22;20312;-79
2024/03/13 10:13:13;;;;;;;;;;;16.70;56.50;;;;;;6277269;22;19974;-79
2024/03/13 10:15:40;;;;;;;;;;;16.80;55.30;;;;;;6276630;22;19997;-79
2024/03/13 10:18:13;;;;;;;;;;;16.80;54.90;;;;;;6276722;22;19965;-79
2024/03/13 10:20:47;;;;;;;;;;;16.80;55.30;;;;;;6275248;22;19919;-79
2024/03/13 10:23:14;;;;;;;;;;;16.50;55.90;;;;;;6274865;22;19985;-78
2024/03/13 10:25:42;;;;;;;;;;;16.30;56.00;;;;;;6275176;22;19946;-78
2024/03/13 10:28:11;;;;;;;;;;;16.00;55.80;;;;;;6275773;22;20078;-79
2024/03/13 10:30:38;;;;;;;;;;;15.60;56.70;;;;;;6275218;22;19919;-79
2024/03/13 10:33:05;;;;;;;;;;;15.20;56.80;;;;;;6275568;22;19977;-78
2024/03/13 10:35:32;;;;;;;;;;;14.90;57.40;;;;;;6274990;22;20323;-78
2024/03/13 10:37:59;;;;;;;;;;;14.60;58.40;;;;;;6275796;22;19924;-79
2024/03/13 10:40:31;;;;;;;;;;;14.30;59.20;;;;;;6275202;22;19919;-78
2024/03/13 10:42:58;;;;;;;;;;;14.20;59.40;;;;;;6274814;22;20344;-79
2024/03/13 10:45:25;;;;;;;;;;;14.00;59.90;;;;;;6276794;22;19927;-79
2024/03/13 10:47:52;;;;;;;;;;;14.00;60.70;;;;;;6275188;22;19923;-78
2024/03/13 10:50:19;;;;;;;;;;;14.10;61.40;;;;;;6275288;22;19969;-78
2024/03/13 10:52:46;;;;;;;;;;;14.30;61.60;;;;;;6274963;22;19933;-78
2024/03/13 10:55:13;;;;;;;;;;;14.50;60.80;;;;;;6276228;22;19927;-79
2024/03/13 10:57:41;;;;;;;;;;;14.70;59.30;;;;;;6276093;22;19927;-78
2024/03/13 11:00:11;;;;;;;;;;;14.90;59.30;;;;;;6274996;22;19923;-78
2024/03/13 11:02:39;;;;;;;;;;;15.10;59.50;;;;;;6274722;22;19926;-79
2024/03/13 11:05:10;;;;;;;;;;;15.40;59.40;;;;;;6274040;22;19923;-79
2024/03/13 11:07:39;;;;;;;;;;;15.50;58.10;;;;;;6274502;22;19937;-79
2024/03/13 11:10:13;;;;;;;;;;;15.80;57.70;;;;;;6274580;22;20220;-79
2024/03/13 11:12:43;;;;;;;;;;;16.00;57.50;;;;;;6274320;22;20304;-79
2024/03/13 11:15:13;;;;;;;;;;;16.30;57.80;;;;;;6275002;22;20026;-80
2024/03/13 11:17:42;;;;;;;;;;;16.80;57.20;;;;;;6274236;22;20339;-80
2024/03/13 11:20:14;;;;;;;;;;;17.60;54.80;;;;;;6274155;22;20223;-80
2024/03/13 11:22:43;;;;;;;;;;;18.30;52.00;;;;;;6274616;22;19919;-80
2024/03/13 11:25:17;;;;;;;;;;;18.80;50.90;;;;;;6274069;22;19981;-80
2024/03/13 11:27:49;;;;;;;;;;;19.80;51.80;;;;;;6274981;22;20014;-80
2024/03/13 11:30:19;;;;;;;;;;;20.10;50.00;;;;;;6274957;22;20300;-79
2024/03/13 11:32:50;;;;;;;;;;;20.20;47.40;;;;;;6275488;22;20296;-79
2024/03/13 11:35:18;;;;;;;;;;;19.90;46.60;;;;;;6275281;22;20231;-80
2024/03/13 11:37:45;;;;;;;;;;;19.40;47.10;;;;;;6273967;22;19941;-80
2024/03/13 11:40:12;;;;;;;;;;;19.20;47.20;;;;;;6274041;22;19920;-79
2024/03/13 11:42:44;;;;;;;;;;;19.10;49.30;;;;;;6274111;22;19931;-79
2024/03/13 11:45:23;;;;;;;;;;;19.10;49.20;;;;;;6274886;22;19980;-80
2024/03/13 11:48:00;;;;;;;;;;;18.80;48.50;;;;;;6274773;22;19919;-79
2024/03/13 11:50:28;;;;;;;;;;;18.50;48.40;;;;;;6274803;22;20005;-81
2024/03/13 11:53:18;;;;;;;;;;;18.00;48.40;;;;;;6274041;22;19926;-79
2024/03/13 11:55:48;;;;;;;;;;;17.80;48.80;;;;;;6274565;22;19930;-79
2024/03/13 11:58:19;;;;;;;;;;;17.20;49.40;;;;;;6275073;22;19923;-80
2024/03/13 12:00:49;;;;;;;;;;;16.50;50.70;;;;;;6273550;22;19923;-80
2024/03/13 12:03:16;;;;;;;;;;;15.90;52.60;;;;;;6274610;22;19920;-81
2024/03/13 12:05:45;;;;;;;;;;;15.70;54.30;;;;;;6273612;22;19923;-79
2024/03/13 12:08:20;;;;;;;;;;;15.80;54.80;;;;;;6248197;22;20077;-80
2024/03/13 12:10:48;;;;;;;;;;;15.80;54.10;;;;;;6273578;22;20002;-80
2024/03/13 12:13:15;;;;;;;;;;;15.70;54.30;;;;;;6274089;22;19938;-80
2024/03/13 12:15:46;;;;;;;;;;;15.90;54.10;;;;;;6274154;22;19919;-80
2024/03/13 12:18:14;;;;;;;;;;;16.30;54.40;;;;;;6273555;22;19984;-79
2024/03/13 12:20:46;;;;;;;;;;;17.10;53.90;;;;;;6273200;22;19919;-81
2024/03/13 12:23:13;;;;;;;;;;;19.90;52.00;;;;;;6273518;22;20289;-80
2024/03/13 12:25:41;;;;;;;;;;;21.70;44.10;;;;;;6273489;22;20007;-80
2024/03/13 12:28:21;;;;;;;;;;;21.50;43.20;;;;;;6273514;22;19919;-80
2024/03/13 12:30:51;;;;;;;;;;;21.60;45.20;;;;;;6273727;22;20578;-80
2024/03/13 12:33:18;;;;;;;;;;;22.50;43.10;;;;;;6273256;22;19937;-80
2024/03/13 12:35:55;;;;;;;;;;;22.60;41.40;;;;;;6273712;22;19919;-79
2024/03/13 12:38:35;;;;;;;;;;;21.80;40.90;;;;;;6273540;22;19923;-80
2024/03/13 12:41:02;;;;;;;;;;;21.10;43.30;;;;;;6274884;22;19923;-80
2024/03/13 12:43:30;;;;;;;;;;;20.60;44.30;;;;;;6274875;22;19931;-80
2024/03/13 12:45:59;;;;;;;;;;;20.20;44.70;;;;;;6273443;22;19980;-80
2024/03/13 12:48:26;;;;;;;;;;;20.10;46.20;;;;;;6273808;22;19990;-80
2024/03/13 12:50:53;;;;;;;;;;;20.20;46.20;;;;;;6273643;22;19923;-81
2024/03/13 12:53:20;;;;;;;;;;;20.30;44.10;;;;;;6273784;22;19923;-80
2024/03/13 12:55:48;;;;;;;;;;;20.70;45.60;;;;;;6273537;22;19930;-80
2024/03/13 12:58:16;;;;;;;;;;;21.00;44.30;;;;;;6274483;22;20288;-80
2024/03/13 13:00:43;;;;;;;;;;;21.40;43.40;;;;;;6273616;22;19919;-80
2024/03/13 13:03:11;;;;;;;;;;;21.50;44.70;;;;;;6274385;22;19927;-80
2024/03/13 13:05:38;;;;;;;;;;;22.40;45.70;;;;;;6273195;22;19950;-80
2024/03/13 13:08:09;;;;;;;;;;;23.80;39.60;;;;;;6273699;22;19923;-80
2024/03/13 13:10:39;;;;;;;;;;;23.80;37.90;;;;;;6273464;22;19985;-80
2024/03/13 13:13:07;;;;;;;;;;;23.10;38.20;;;;;;6273917;22;19923;-80
2024/03/13 13:15:37;;;;;;;;;;;22.30;40.00;;;;;;6275190;22;19931;-81
2024/03/13 13:18:04;;;;;;;;;;;21.40;41.10;;;;;;6274085;22;19974;-80
2024/03/13 13:20:33;;;;;;;;;;;20.60;42.10;;;;;;6273368;22;19926;-80
2024/03/13 13:23:00;;;;;;;;;;;19.80;43.60;;;;;;6273440;22;19973;-80
2024/03/13 13:25:27;;;;;;;;;;;19.30;45.00;;;;;;6273120;22;19930;-79
2024/03/13 13:27:57;;;;;;;;;;;18.90;46.10;;;;;;6273809;22;19920;-79
2024/03/13 13:30:24;;;;;;;;;;;18.50;47.00;;;;;;6276335;22;20279;-80
2024/03/13 13:32:51;;;;;;;;;;;18.10;47.80;;;;;;6275092;22;20584;-80
2024/03/13 13:35:18;;;;;;;;;;;17.70;48.00;;;;;;6275131;22;19954;-79
2024/03/13 13:37:45;;;;;;;;;;;17.30;49.10;;;;;;6276513;22;19988;-79
2024/03/13 13:40:15;;;;;;;;;;;17.00;49.40;;;;;;6275356;22;20235;-80
2024/03/13 13:42:45;;;;;;;;;;;16.60;49.70;;;;;;6275425;22;19923;-78
2024/03/13 13:45:16;;;;;;;;;;;16.40;50.60;;;;;;6275349;22;20262;-78
2024/03/13 13:47:43;;;;;;;;;;;16.40;51.20;;;;;;6275450;22;19953;-78
2024/03/13 13:50:15;;;;;;;;;;;16.60;51.00;;;;;;6276756;22;20296;-78
2024/03/13 13:52:44;;;;;;;;;;;16.60;50.60;;;;;;6275440;22;19923;-78
2024/03/13 13:55:12;;;;;;;;;;;16.60;51.20;;;;;;6275764;22;20352;-78
2024/03/13 13:57:40;;;;;;;;;;;16.50;50.80;;;;;;6276208;22;19930;-78
2024/03/13 14:00:18;;;;;;;;;;;16.50;51.50;;;;;;6275696;22;19927;-78
2024/03/13 14:02:46;;;;;;;;;;;16.50;50.90;;;;;;6275578;22;19930;-78
2024/03/13 14:05:16;;;;;;;;;;;16.20;50.70;;;;;;6275385;22;19929;-78
2024/03/13 14:07:44;;;;;;;;;;;16.00;51.20;;;;;;6276770;22;19923;-78
2024/03/13 14:10:11;;;;;;;;;;;15.90;52.10;;;;;;6277515;22;20548;-78
2024/03/13 14:12:39;;;;;;;;;;;15.70;52.00;;;;;;6277664;22;19974;-76
2024/03/13 14:15:17;;;;;;;;;;;15.60;52.40;;;;;;6275189;22;19950;-77
2024/03/13 14:17:45;;;;;;;;;;;15.30;52.40;;;;;;6275927;22;20262;-77
2024/03/13 14:20:13;;;;;;;;;;;15.10;53.20;;;;;;6275415;22;19919;-77
2024/03/13 14:22:44;;;;;;;;;;;14.80;53.60;;;;;;6276038;22;19990;-78
2024/03/13 14:25:11;;;;;;;;;;;14.60;54.30;;;;;;6277365;22;20187;-78
2024/03/13 14:27:38;;;;;;;;;;;14.50;55.60;;;;;;6276897;22;19930;-78
2024/03/13 14:30:07;;;;;;;;;;;14.40;55.40;;;;;;6275709;22;19920;-77
2024/03/13 14:32:34;;;;;;;;;;;14.30;56.20;;;;;;6277138;22;19927;-78
2024/03/13 14:35:05;;;;;;;;;;;14.20;56.00;;;;;;6277052;22;20347;-78
2024/03/13 14:37:35;;;;;;;;;;;14.20;56.40;;;;;;6276845;22;19919;-78
2024/03/13 14:40:04;;;;;;;;;;;14.10;56.60;;;;;;6276189;22;20308;-77
2024/03/13 14:42:32;;;;;;;;;;;14.10;56.70;;;;;;6277250;22;19920;-77
2024/03/13 14:45:03;;;;;;;;;;;14.00;56.90;;;;;;6275980;22;19923;-77
2024/03/13 14:47:30;;;;;;;;;;;13.90;57.20;;;;;;6276021;22;20001;-77
2024/03/13 14:49:57;;;;;;;;;;;13.70;56.80;;;;;;6275548;22;20271;-78
2024/03/13 14:52:24;;;;;;;;;;;13.60;57.70;;;;;;6276392;22;19919;-78
2024/03/13 14:54:52;;;;;;;;;;;13.50;58.20;;;;;;6274954;22;19919;-77
2024/03/13 14:57:19;;;;;;;;;;;13.50;58.70;;;;;;6274897;22;19966;-77
2024/03/13 14:59:48;;;;;;;;;;;13.60;59.00;;;;;;6274567;22;19925;-77